createdAt,value
2023-03-23T15:58:24.048Z,23.92
2023-03-23T16:00:52.392Z,23.97
2023-03-23T16:03:22.175Z,24.01
2023-03-23T16:05:50.791Z,24.04
2023-03-23T16:08:18.502Z,24.06
2023-03-23T16:10:46.237Z,24.02
2023-03-23T16:13:15.389Z,23.96
2023-03-23T16:15:43.237Z,23.98
2023-03-23T16:18:16.110Z,23.99
2023-03-23T16:20:43.890Z,23.95
2023-03-23T16:23:11.583Z,23.86
2023-03-23T16:25:39.242Z,23.80
2023-03-23T16:28:06.921Z,23.76
2023-03-23T16:30:36.294Z,23.70
2023-03-23T16:33:04.406Z,23.61
2023-03-23T16:35:32.090Z,23.52
2023-03-23T16:38:07.020Z,23.44
2023-03-23T16:40:36.469Z,23.35
2023-03-23T16:43:09.238Z,23.31
2023-03-23T16:45:40.984Z,23.24
2023-03-23T16:48:10.342Z,23.17
2023-03-23T16:50:38.165Z,23.12
2023-03-23T16:53:06.587Z,23.05
2023-03-23T16:55:34.251Z,23.01
2023-03-23T16:58:15.411Z,22.98
2023-03-23T17:00:46.590Z,22.92
2023-03-23T17:03:16.083Z,22.87
2023-03-23T17:05:45.120Z,22.81
2023-03-23T17:08:13.180Z,22.76
2023-03-23T17:10:41.640Z,22.72
2023-03-23T17:13:09.452Z,22.68
2023-03-23T17:15:38.123Z,22.63
2023-03-23T17:18:07.476Z,22.59
2023-03-23T17:20:35.255Z,22.56
2023-03-23T17:23:03.053Z,22.52
2023-03-23T17:25:31.577Z,22.47
2023-03-23T17:28:05.894Z,22.44
2023-03-23T17:30:45.351Z,22.40
2023-03-23T17:33:14.471Z,22.38
2023-03-23T17:35:42.917Z,22.35
2023-03-23T17:38:11.009Z,22.27
2023-03-23T17:40:38.727Z,22.29
2023-03-23T17:43:06.943Z,22.26
2023-03-23T17:45:34.609Z,22.24
2023-03-23T17:48:04.576Z,22.21
2023-03-23T17:50:33.721Z,22.20
2023-03-23T17:53:01.560Z,22.18
2023-03-23T17:55:29.263Z,22.16
2023-03-23T17:57:56.953Z,22.15
2023-03-23T18:00:24.755Z,22.14
2023-03-23T18:02:52.561Z,22.12
2023-03-23T18:05:20.446Z,22.10
2023-03-23T18:07:50.063Z,22.08
2023-03-23T18:10:17.876Z,22.08
2023-03-23T18:12:45.638Z,22.07
2023-03-23T18:15:13.389Z,22.05
2023-03-23T18:17:42.159Z,22.04
2023-03-23T18:20:10.190Z,22.02
2023-03-23T18:22:37.959Z,21.99
2023-03-23T18:25:07.381Z,21.97
2023-03-23T18:27:35.127Z,21.96
2023-03-23T18:30:03.287Z,21.94
2023-03-23T18:32:31.040Z,21.92
2023-03-23T18:34:58.815Z,21.92
2023-03-23T18:37:26.613Z,21.90
2023-03-23T18:39:54.501Z,21.89
2023-03-23T18:42:23.535Z,21.88
2023-03-23T18:44:51.251Z,21.87
2023-03-23T18:47:18.966Z,21.86
2023-03-23T18:49:51.020Z,21.86
2023-03-23T18:52:18.769Z,21.86
2023-03-23T18:54:46.663Z,21.84
2023-03-23T18:57:14.533Z,21.85
2023-03-23T18:59:43.606Z,21.84
2023-03-23T19:02:11.741Z,21.83
2023-03-23T19:04:39.470Z,21.83
2023-03-23T19:07:07.486Z,21.83
2023-03-23T19:09:35.265Z,21.80
2023-03-23T19:12:02.984Z,21.79
2023-03-23T19:14:30.832Z,21.79
2023-03-23T19:16:59.969Z,21.79
2023-03-23T19:19:27.743Z,21.79
2023-03-23T19:21:55.466Z,21.77
2023-03-23T19:24:23.588Z,21.76
2023-03-23T19:26:51.691Z,21.75
2023-03-23T19:29:26.717Z,21.73
2023-03-23T19:31:55.311Z,21.73
2023-03-23T19:34:25.004Z,21.72
2023-03-23T19:37:02.006Z,21.69
2023-03-23T19:39:33.349Z,21.69
2023-03-23T19:42:01.128Z,21.67
2023-03-23T19:44:29.138Z,21.66
2023-03-23T19:46:57.563Z,21.66
2023-03-23T19:49:26.981Z,21.65
2023-03-23T19:52:06.394Z,21.64
2023-03-23T19:54:38.540Z,21.64
2023-03-23T19:57:06.346Z,21.63
2023-03-23T19:59:34.082Z,21.63
2023-03-23T20:02:02.267Z,21.62
2023-03-23T20:04:31.698Z,21.62
2023-03-23T20:07:00.460Z,21.63
2023-03-23T20:09:28.512Z,21.63
2023-03-23T20:11:56.476Z,21.64
2023-03-23T20:14:25.724Z,21.64
2023-03-23T20:16:53.919Z,21.64
2023-03-23T20:19:21.996Z,21.66
2023-03-23T20:21:52.357Z,21.67
2023-03-23T20:24:20.671Z,21.68
2023-03-23T20:26:48.410Z,21.69
2023-03-23T20:29:16.451Z,21.69
2023-03-23T20:31:46.215Z,21.69
2023-03-23T20:34:17.151Z,21.70
2023-03-23T20:36:45.819Z,21.69
2023-03-23T20:39:18.990Z,21.69
2023-03-23T20:41:50.405Z,21.69
2023-03-23T20:44:18.678Z,21.69
2023-03-23T20:46:47.143Z,21.68
2023-03-23T20:49:15.885Z,21.68
2023-03-23T20:51:44.739Z,21.70
2023-03-23T20:54:15.190Z,21.69
2023-03-23T20:56:43.014Z,21.68
2023-03-23T20:59:11.472Z,21.69
2023-03-23T21:01:39.919Z,21.68
2023-03-23T21:04:14.716Z,21.70
2023-03-23T21:06:42.560Z,21.69
2023-03-23T21:09:10.372Z,21.68
2023-03-23T21:11:39.523Z,21.69
2023-03-23T21:14:07.510Z,21.70
2023-03-23T21:16:35.358Z,21.69
2023-03-23T21:19:04.007Z,21.69
2023-03-23T21:21:31.836Z,21.69
2023-03-23T21:23:59.578Z,21.68
2023-03-23T21:26:28.601Z,21.66
2023-03-23T21:29:00.589Z,21.66
2023-03-23T21:31:30.501Z,21.64
2023-03-23T21:33:58.803Z,21.64
2023-03-23T21:36:30.324Z,21.64
2023-03-23T21:38:58.015Z,21.65
2023-03-23T21:41:26.984Z,21.63
2023-03-23T21:43:54.684Z,21.64
2023-03-23T21:46:23.765Z,21.61
2023-03-23T21:48:51.920Z,21.60
2023-03-23T21:51:21.599Z,21.59
2023-03-23T21:53:50.078Z,21.58
2023-03-23T21:56:18.075Z,21.58
2023-03-23T21:58:45.774Z,21.57
2023-03-23T22:01:13.866Z,21.56
2023-03-23T22:03:44.250Z,21.58
2023-03-23T22:06:13.387Z,21.58
2023-03-23T22:08:42.693Z,21.58
2023-03-23T22:11:13.534Z,21.59
2023-03-23T22:13:42.147Z,21.59
2023-03-23T22:16:11.233Z,21.59
2023-03-23T22:18:39.105Z,21.60
2023-03-23T22:21:08.399Z,21.60
2023-03-23T22:23:36.184Z,21.59
2023-03-23T22:26:03.999Z,21.59
2023-03-23T22:28:31.920Z,21.58
2023-03-23T22:31:01.711Z,21.56
2023-03-23T22:33:29.704Z,21.55
2023-03-23T22:35:57.468Z,21.53
2023-03-23T22:38:26.719Z,21.54
2023-03-23T22:40:57.685Z,21.54
2023-03-23T22:43:26.942Z,21.55
2023-03-23T22:45:54.866Z,21.55
2023-03-23T22:48:23.112Z,21.55
2023-03-23T22:50:50.992Z,21.54
2023-03-23T22:53:18.842Z,21.53
2023-03-23T22:55:48.720Z,21.53
2023-03-23T22:58:16.653Z,21.53
2023-03-23T23:00:46.411Z,21.53
2023-03-23T23:03:14.330Z,21.54
2023-03-23T23:05:42.586Z,21.54
2023-03-23T23:08:12.445Z,21.54
2023-03-23T23:10:40.727Z,21.52
2023-03-23T23:13:10.064Z,21.52
2023-03-23T23:15:37.946Z,21.52
2023-03-23T23:18:06.428Z,21.53
2023-03-23T23:20:34.415Z,21.54
2023-03-23T23:23:02.581Z,21.53
2023-03-23T23:25:30.617Z,21.53
2023-03-23T23:27:58.743Z,21.51
2023-03-23T23:30:30.569Z,21.52
2023-03-23T23:32:58.766Z,21.52
2023-03-23T23:35:26.740Z,21.51
2023-03-23T23:37:54.555Z,21.50
2023-03-23T23:40:22.325Z,21.51
2023-03-23T23:42:51.074Z,21.51
2023-03-23T23:45:19.125Z,21.52
2023-03-23T23:47:48.255Z,21.52
2023-03-23T23:50:16.856Z,21.52
2023-03-23T23:52:45.073Z,21.51
2023-03-23T23:55:15.431Z,21.53
2023-03-23T23:57:43.285Z,21.52
